sensor_id;sensor_type;location;lat;lon;timestamp;pressure;altitude;pressure_sealevel;temperature;humidity
28289;BME280;15558;50.874;6.964;2022-09-13T00:00:54;100642.94;;;21.66;59.51
28289;BME280;15558;50.874;6.964;2022-09-13T00:03:20;100646.56;;;21.63;59.65
28289;BME280;15558;50.874;6.964;2022-09-13T00:05:47;100642.44;;;21.60;59.89
28289;BME280;15558;50.874;6.964;2022-09-13T00:08:13;100634.22;;;21.59;59.76
28289;BME280;15558;50.874;6.964;2022-09-13T00:10:41;100636.47;;;21.50;60.12
28289;BME280;15558;50.874;6.964;2022-09-13T00:13:08;100639.41;;;21.53;60.08
28289;BME280;15558;50.874;6.964;2022-09-13T00:15:35;100629.09;;;21.49;60.13
28289;BME280;15558;50.874;6.964;2022-09-13T00:18:01;100635.19;;;21.47;60.48
28289;BME280;15558;50.874;6.964;2022-09-13T00:20:27;100639.09;;;21.40;60.39
28289;BME280;15558;50.874;6.964;2022-09-13T00:22:53;100629.78;;;21.43;60.59
28289;BME280;15558;50.874;6.964;2022-09-13T00:25:19;100619.56;;;21.42;60.64
28289;BME280;15558;50.874;6.964;2022-09-13T00:27:45;100617.06;;;21.40;60.71
28289;BME280;15558;50.874;6.964;2022-09-13T00:30:12;100613.63;;;21.35;60.79
28289;BME280;15558;50.874;6.964;2022-09-13T00:32:38;100618.88;;;21.33;60.91
28289;BME280;15558;50.874;6.964;2022-09-13T00:35:05;100634.56;;;21.39;60.87
28289;BME280;15558;50.874;6.964;2022-09-13T00:37:31;100622.66;;;21.37;60.86
28289;BME280;15558;50.874;6.964;2022-09-13T00:40:01;100622.22;;;21.35;60.86
28289;BME280;15558;50.874;6.964;2022-09-13T00:42:29;100628.13;;;21.26;61.08
28289;BME280;15558;50.874;6.964;2022-09-13T00:44:59;100621.22;;;21.27;60.99
28289;BME280;15558;50.874;6.964;2022-09-13T00:50:15;100615.44;;;21.24;61.41
28289;BME280;15558;50.874;6.964;2022-09-13T00:52:46;100619.56;;;21.26;61.64
28289;BME280;15558;50.874;6.964;2022-09-13T00:55:20;100622.06;;;21.28;61.49
28289;BME280;15558;50.874;6.964;2022-09-13T00:57:48;100624.34;;;21.22;61.60
28289;BME280;15558;50.874;6.964;2022-09-13T01:00:17;100617.38;;;21.20;61.74
28289;BME280;15558;50.874;6.964;2022-09-13T01:02:47;100617.53;;;21.27;61.78
28289;BME280;15558;50.874;6.964;2022-09-13T01:05:17;100623.53;;;21.22;61.85
28289;BME280;15558;50.874;6.964;2022-09-13T01:07:45;100626.59;;;21.13;61.82
28289;BME280;15558;50.874;6.964;2022-09-13T01:10:11;100622.63;;;21.18;62.25
28289;BME280;15558;50.874;6.964;2022-09-13T01:12:47;100636.09;;;21.17;62.03
28289;BME280;15558;50.874;6.964;2022-09-13T01:15:15;100633.59;;;21.16;62.29
28289;BME280;15558;50.874;6.964;2022-09-13T01:17:42;100631.31;;;21.06;62.28
28289;BME280;15558;50.874;6.964;2022-09-13T01:20:09;100622.84;;;21.10;62.21
28289;BME280;15558;50.874;6.964;2022-09-13T01:25:39;100625.38;;;21.14;62.09
28289;BME280;15558;50.874;6.964;2022-09-13T01:30:52;100641.09;;;21.05;62.58
28289;BME280;15558;50.874;6.964;2022-09-13T01:39:05;100633.06;;;20.95;62.91
28289;BME280;15558;50.874;6.964;2022-09-13T01:42:07;100622.13;;;20.97;62.66
28289;BME280;15558;50.874;6.964;2022-09-13T01:47:24;100639.25;;;20.97;63.16
28289;BME280;15558;50.874;6.964;2022-09-13T01:50:03;100633.38;;;20.90;63.01
28289;BME280;15558;50.874;6.964;2022-09-13T01:55:33;100626.91;;;20.93;63.36
28289;BME280;15558;50.874;6.964;2022-09-13T01:58:14;100618.75;;;20.92;63.72
28289;BME280;15558;50.874;6.964;2022-09-13T02:01:17;100609.78;;;21.09;63.55
28289;BME280;15558;50.874;6.964;2022-09-13T02:03:51;100615.41;;;21.05;63.46
28289;BME280;15558;50.874;6.964;2022-09-13T02:06:23;100614.19;;;21.06;63.42
28289;BME280;15558;50.874;6.964;2022-09-13T02:08:57;100604.34;;;21.04;63.29
28289;BME280;15558;50.874;6.964;2022-09-13T02:11:25;100610.72;;;20.97;63.55
28289;BME280;15558;50.874;6.964;2022-09-13T02:14:04;100607.84;;;20.97;63.56
28289;BME280;15558;50.874;6.964;2022-09-13T02:16:38;100610.34;;;20.83;63.95
28289;BME280;15558;50.874;6.964;2022-09-13T02:19:13;100612.94;;;20.88;63.93
28289;BME280;15558;50.874;6.964;2022-09-13T02:21:43;100606.22;;;20.96;63.59
28289;BME280;15558;50.874;6.964;2022-09-13T02:24:15;100592.59;;;20.90;63.76
28289;BME280;15558;50.874;6.964;2022-09-13T02:26:44;100597.25;;;20.98;63.77
28289;BME280;15558;50.874;6.964;2022-09-13T02:29:14;100595.72;;;20.85;64.24
28289;BME280;15558;50.874;6.964;2022-09-13T02:31:47;100593.31;;;21.02;63.75
28289;BME280;15558;50.874;6.964;2022-09-13T02:34:18;100594.03;;;20.99;63.86
28289;BME280;15558;50.874;6.964;2022-09-13T02:36:46;100595.25;;;20.98;64.34
28289;BME280;15558;50.874;6.964;2022-09-13T02:39:15;100581.97;;;21.06;63.55
28289;BME280;15558;50.874;6.964;2022-09-13T02:41:47;100591.22;;;21.18;63.43
28289;BME280;15558;50.874;6.964;2022-09-13T02:44:30;100585.06;;;21.16;63.61
28289;BME280;15558;50.874;6.964;2022-09-13T02:50:56;100592.22;;;21.25;63.52
28289;BME280;15558;50.874;6.964;2022-09-13T02:53:35;100600.78;;;21.25;63.43
28289;BME280;15558;50.874;6.964;2022-09-13T02:56:19;100595.09;;;21.25;64.02
28289;BME280;15558;50.874;6.964;2022-09-13T02:58:57;100589.81;;;21.27;64.05
28289;BME280;15558;50.874;6.964;2022-09-13T03:01:24;100595.34;;;21.20;64.51
28289;BME280;15558;50.874;6.964;2022-09-13T03:03:51;100599.06;;;21.21;64.62
28289;BME280;15558;50.874;6.964;2022-09-13T03:06:27;100592.69;;;21.27;64.78
28289;BME280;15558;50.874;6.964;2022-09-13T03:08:59;100592.22;;;21.25;64.90
28289;BME280;15558;50.874;6.964;2022-09-13T03:25:51;100578.19;;;21.36;65.13
28289;BME280;15558;50.874;6.964;2022-09-13T03:28:38;100587.13;;;21.34;64.80
28289;BME280;15558;50.874;6.964;2022-09-13T03:36:34;100579.38;;;21.35;64.52
28289;BME280;15558;50.874;6.964;2022-09-13T03:41:35;100571.81;;;21.42;64.28
28289;BME280;15558;50.874;6.964;2022-09-13T03:44:05;100575.66;;;21.49;63.58
28289;BME280;15558;50.874;6.964;2022-09-13T03:46:36;100569.94;;;21.49;62.83
28289;BME280;15558;50.874;6.964;2022-09-13T03:49:06;100566.34;;;21.52;62.87
28289;BME280;15558;50.874;6.964;2022-09-13T03:51:34;100565.34;;;21.45;62.79
28289;BME280;15558;50.874;6.964;2022-09-13T03:54:04;100571.06;;;21.45;63.47
28289;BME280;15558;50.874;6.964;2022-09-13T03:56:31;100562.50;;;21.45;63.33
28289;BME280;15558;50.874;6.964;2022-09-13T03:58:57;100562.28;;;21.53;62.49
28289;BME280;15558;50.874;6.964;2022-09-13T04:01:24;100562.22;;;21.50;62.57
28289;BME280;15558;50.874;6.964;2022-09-13T04:03:50;100549.22;;;21.52;62.51
28289;BME280;15558;50.874;6.964;2022-09-13T04:06:16;100558.06;;;21.47;61.96
28289;BME280;15558;50.874;6.964;2022-09-13T04:08:42;100556.56;;;21.53;61.91
28289;BME280;15558;50.874;6.964;2022-09-13T04:11:09;100563.72;;;21.44;61.75
28289;BME280;15558;50.874;6.964;2022-09-13T04:13:36;100560.31;;;21.39;62.14
28289;BME280;15558;50.874;6.964;2022-09-13T04:16:05;100565.06;;;21.50;61.33
28289;BME280;15558;50.874;6.964;2022-09-13T04:18:32;100578.19;;;21.36;61.80
28289;BME280;15558;50.874;6.964;2022-09-13T04:20:59;100579.72;;;21.48;61.27
28289;BME280;15558;50.874;6.964;2022-09-13T04:23:27;100574.09;;;21.52;61.17
28289;BME280;15558;50.874;6.964;2022-09-13T04:25:53;100580.63;;;21.52;61.16
28289;BME280;15558;50.874;6.964;2022-09-13T04:28:20;100591.91;;;21.46;62.14
28289;BME280;15558;50.874;6.964;2022-09-13T04:30:47;100590.91;;;21.38;61.90
28289;BME280;15558;50.874;6.964;2022-09-13T04:33:14;100593.69;;;21.53;61.94
28289;BME280;15558;50.874;6.964;2022-09-13T04:35:42;100591.22;;;21.52;62.13
28289;BME280;15558;50.874;6.964;2022-09-13T04:38:08;100596.41;;;21.47;62.86
28289;BME280;15558;50.874;6.964;2022-09-13T04:40:34;100597.16;;;21.44;62.85
28289;BME280;15558;50.874;6.964;2022-09-13T04:43:02;100599.63;;;21.45;63.20
28289;BME280;15558;50.874;6.964;2022-09-13T04:45:28;100602.34;;;21.38;63.64
28289;BME280;15558;50.874;6.964;2022-09-13T04:47:55;100599.75;;;21.33;63.77
28289;BME280;15558;50.874;6.964;2022-09-13T04:50:22;100600.75;;;21.41;63.44
28289;BME280;15558;50.874;6.964;2022-09-13T04:52:49;100604.91;;;21.28;63.07
28289;BME280;15558;50.874;6.964;2022-09-13T04:55:15;100597.16;;;21.44;63.10
28289;BME280;15558;50.874;6.964;2022-09-13T04:57:41;100600.63;;;21.37;63.25
28289;BME280;15558;50.874;6.964;2022-09-13T05:00:08;100602.88;;;21.44;62.97
28289;BME280;15558;50.874;6.964;2022-09-13T05:02:35;100603.97;;;21.39;62.77
28289;BME280;15558;50.874;6.964;2022-09-13T05:05:01;100590.44;;;21.36;62.76
28289;BME280;15558;50.874;6.964;2022-09-13T05:07:27;100601.59;;;21.26;63.13
28289;BME280;15558;50.874;6.964;2022-09-13T05:09:53;100609.78;;;21.43;63.51
28289;BME280;15558;50.874;6.964;2022-09-13T05:12:19;100601.84;;;21.36;63.09
28289;BME280;15558;50.874;6.964;2022-09-13T05:14:45;100594.88;;;21.34;63.25
28289;BME280;15558;50.874;6.964;2022-09-13T05:17:11;100584.72;;;21.36;63.63
28289;BME280;15558;50.874;6.964;2022-09-13T05:19:37;100589.16;;;21.34;63.33
28289;BME280;15558;50.874;6.964;2022-09-13T05:22:03;100593.91;;;21.45;63.58
28289;BME280;15558;50.874;6.964;2022-09-13T05:24:29;100598.66;;;21.56;62.87
28289;BME280;15558;50.874;6.964;2022-09-13T05:26:55;100596.94;;;21.52;63.79
28289;BME280;15558;50.874;6.964;2022-09-13T05:29:21;100592.34;;;21.47;64.09
28289;BME280;15558;50.874;6.964;2022-09-13T05:31:47;100596.41;;;21.47;64.69
28289;BME280;15558;50.874;6.964;2022-09-13T05:34:15;100595.66;;;21.49;64.78
28289;BME280;15558;50.874;6.964;2022-09-13T05:36:42;100606.25;;;21.49;64.62
28289;BME280;15558;50.874;6.964;2022-09-13T05:39:12;100598.22;;;21.54;64.58
28289;BME280;15558;50.874;6.964;2022-09-13T05:41:39;100589.19;;;21.52;63.79
28289;BME280;15558;50.874;6.964;2022-09-13T05:44:05;100592.78;;;21.49;63.26
28289;BME280;15558;50.874;6.964;2022-09-13T05:46:31;100589.19;;;21.52;62.67
28289;BME280;15558;50.874;6.964;2022-09-13T05:48:57;100584.38;;;21.56;62.08
28289;BME280;15558;50.874;6.964;2022-09-13T05:51:24;100578.00;;;21.63;62.11
28289;BME280;15558;50.874;6.964;2022-09-13T05:53:51;100580.63;;;21.71;61.46
28289;BME280;15558;50.874;6.964;2022-09-13T05:56:23;100590.38;;;21.70;61.55
28289;BME280;15558;50.874;6.964;2022-09-13T05:58:50;100587.84;;;21.65;61.83
28289;BME280;15558;50.874;6.964;2022-09-13T06:01:18;100588.66;;;21.66;62.00
28289;BME280;15558;50.874;6.964;2022-09-13T06:03:57;100591.16;;;21.67;61.31
28289;BME280;15558;50.874;6.964;2022-09-13T06:06:24;100592.41;;;21.70;60.92
28289;BME280;15558;50.874;6.964;2022-09-13T06:08:51;100592.78;;;21.68;60.76
28289;BME280;15558;50.874;6.964;2022-09-13T06:11:18;100592.19;;;21.59;61.14
28289;BME280;15558;50.874;6.964;2022-09-13T06:13:44;100593.63;;;21.69;60.69
28289;BME280;15558;50.874;6.964;2022-09-13T06:16:12;100591.91;;;21.64;60.89
28289;BME280;15558;50.874;6.964;2022-09-13T06:18:38;100601.81;;;21.51;61.34
28289;BME280;15558;50.874;6.964;2022-09-13T06:21:07;100601.44;;;21.53;61.08
28289;BME280;15558;50.874;6.964;2022-09-13T06:23:33;100590.84;;;21.53;61.36
28289;BME280;15558;50.874;6.964;2022-09-13T06:26:03;100594.38;;;21.47;61.85
28289;BME280;15558;50.874;6.964;2022-09-13T06:28:30;100585.44;;;21.48;61.91
28289;BME280;15558;50.874;6.964;2022-09-13T06:31:07;100589.66;;;21.54;62.09
28289;BME280;15558;50.874;6.964;2022-09-13T06:33:34;100591.16;;;21.67;62.34
28289;BME280;15558;50.874;6.964;2022-09-13T06:36:06;100593.69;;;21.72;63.20
28289;BME280;15558;50.874;6.964;2022-09-13T06:38:32;100589.72;;;21.77;62.81
28289;BME280;15558;50.874;6.964;2022-09-13T06:41:00;100581.66;;;21.82;62.44
28289;BME280;15558;50.874;6.964;2022-09-13T06:43:26;100579.25;;;21.84;62.99
28289;BME280;15558;50.874;6.964;2022-09-13T06:45:52;100579.81;;;21.93;62.41
28289;BME280;15558;50.874;6.964;2022-09-13T06:48:18;100578.50;;;21.87;61.81
28289;BME280;15558;50.874;6.964;2022-09-13T06:50:45;100575.34;;;21.92;62.26
28289;BME280;15558;50.874;6.964;2022-09-13T06:53:11;100582.69;;;21.93;62.36
28289;BME280;15558;50.874;6.964;2022-09-13T06:55:37;100593.88;;;22.01;61.67
28289;BME280;15558;50.874;6.964;2022-09-13T06:58:03;100589.00;;;22.02;61.01
28289;BME280;15558;50.874;6.964;2022-09-13T07:00:29;100584.13;;;22.02;61.06
28289;BME280;15558;50.874;6.964;2022-09-13T07:02:55;100587.66;;;22.15;60.75
28289;BME280;15558;50.874;6.964;2022-09-13T07:05:21;100579.91;;;22.15;60.97
28289;BME280;15558;50.874;6.964;2022-09-13T07:07:46;100581.25;;;22.21;60.87
28289;BME280;15558;50.874;6.964;2022-09-13T07:10:13;100590.78;;;22.28;60.57
28289;BME280;15558;50.874;6.964;2022-09-13T07:12:40;100588.13;;;22.39;60.01
28289;BME280;15558;50.874;6.964;2022-09-13T07:15:07;100582.63;;;22.30;60.01
28289;BME280;15558;50.874;6.964;2022-09-13T07:17:33;100584.28;;;22.31;60.99
28289;BME280;15558;50.874;6.964;2022-09-13T07:19:59;100597.44;;;22.36;60.93
28289;BME280;15558;50.874;6.964;2022-09-13T07:22:25;100591.00;;;22.39;61.11
28289;BME280;15558;50.874;6.964;2022-09-13T07:24:52;100593.88;;;22.42;61.33
28289;BME280;15558;50.874;6.964;2022-09-13T07:27:18;100590.31;;;22.49;61.30
28289;BME280;15558;50.874;6.964;2022-09-13T07:29:44;100593.38;;;22.59;60.69
28289;BME280;15558;50.874;6.964;2022-09-13T07:32:10;100597.94;;;22.63;60.63
28289;BME280;15558;50.874;6.964;2022-09-13T07:34:36;100593.97;;;22.68;60.57
28289;BME280;15558;50.874;6.964;2022-09-13T07:37:02;100595.72;;;22.76;60.37
28289;BME280;15558;50.874;6.964;2022-09-13T07:39:28;100584.78;;;22.81;59.97
28289;BME280;15558;50.874;6.964;2022-09-13T07:41:54;100586.94;;;22.88;59.77
28289;BME280;15558;50.874;6.964;2022-09-13T07:44:20;100574.75;;;22.90;59.75
28289;BME280;15558;50.874;6.964;2022-09-13T07:46:46;100585.06;;;22.98;59.21
28289;BME280;15558;50.874;6.964;2022-09-13T07:49:15;100582.78;;;23.07;58.47
28289;BME280;15558;50.874;6.964;2022-09-13T07:51:42;100582.44;;;23.12;58.20
28289;BME280;15558;50.874;6.964;2022-09-13T07:54:14;100589.09;;;23.20;57.87
28289;BME280;15558;50.874;6.964;2022-09-13T07:56:41;100590.38;;;23.22;58.28
28289;BME280;15558;50.874;6.964;2022-09-13T07:59:11;100599.06;;;23.29;58.57
28289;BME280;15558;50.874;6.964;2022-09-13T08:01:43;100594.16;;;23.29;58.61
28289;BME280;15558;50.874;6.964;2022-09-13T08:04:11;100589.00;;;23.42;57.55
28289;BME280;15558;50.874;6.964;2022-09-13T08:06:39;100590.38;;;23.51;58.12
28289;BME280;15558;50.874;6.964;2022-09-13T08:09:07;100593.78;;;23.60;58.42
28289;BME280;15558;50.874;6.964;2022-09-13T08:11:37;100594.72;;;23.67;57.76
28289;BME280;15558;50.874;6.964;2022-09-13T08:14:06;100592.31;;;23.73;57.43
28289;BME280;15558;50.874;6.964;2022-09-13T08:16:32;100589.16;;;23.81;56.52
28289;BME280;15558;50.874;6.964;2022-09-13T08:19:00;100584.72;;;23.87;56.49
28289;BME280;15558;50.874;6.964;2022-09-13T08:21:32;100596.75;;;23.96;56.11
28289;BME280;15558;50.874;6.964;2022-09-13T08:23:59;100580.41;;;24.03;57.89
28289;BME280;15558;50.874;6.964;2022-09-13T08:26:26;100585.06;;;24.15;56.32
28289;BME280;15558;50.874;6.964;2022-09-13T08:28:57;100582.38;;;24.29;54.65
28289;BME280;15558;50.874;6.964;2022-09-13T08:31:24;100578.78;;;24.38;55.18
28289;BME280;15558;50.874;6.964;2022-09-13T08:33:50;100585.44;;;24.49;54.40
28289;BME280;15558;50.874;6.964;2022-09-13T08:36:16;100581.38;;;24.50;55.43
28289;BME280;15558;50.874;6.964;2022-09-13T08:38:47;100583.47;;;24.57;56.21
28289;BME280;15558;50.874;6.964;2022-09-13T08:41:51;100586.84;;;24.66;54.34
28289;BME280;15558;50.874;6.964;2022-09-13T08:44:41;100588.59;;;24.77;54.15
28289;BME280;15558;50.874;6.964;2022-09-13T08:50:13;100593.66;;;24.90;55.42
28289;BME280;15558;50.874;6.964;2022-09-13T08:53:22;100583.81;;;24.95;55.11
28289;BME280;15558;50.874;6.964;2022-09-13T08:56:19;100588.41;;;25.02;54.55
28289;BME280;15558;50.874;6.964;2022-09-13T09:06:19;100585.28;;;25.28;54.26
28289;BME280;15558;50.874;6.964;2022-09-13T09:08:53;100586.63;;;25.41;53.94
28289;BME280;15558;50.874;6.964;2022-09-13T09:16:53;100578.72;;;26.02;49.41
28289;BME280;15558;50.874;6.964;2022-09-13T09:19:26;100587.78;;;26.07;50.45
28289;BME280;15558;50.874;6.964;2022-09-13T09:21:54;100582.06;;;26.17;50.61
28289;BME280;15558;50.874;6.964;2022-09-13T09:24:22;100589.06;;;26.23;49.78
28289;BME280;15558;50.874;6.964;2022-09-13T09:26:52;100587.88;;;26.35;51.27
28289;BME280;15558;50.874;6.964;2022-09-13T09:29:23;100587.88;;;26.35;50.32
28289;BME280;15558;50.874;6.964;2022-09-13T09:37:26;100585.03;;;26.55;50.35
28289;BME280;15558;50.874;6.964;2022-09-13T09:39:54;100595.72;;;26.48;50.04
28289;BME280;15558;50.874;6.964;2022-09-13T09:42:25;100591.63;;;26.59;48.24
28289;BME280;15558;50.874;6.964;2022-09-13T09:44:59;100589.56;;;26.70;50.91
28289;BME280;15558;50.874;6.964;2022-09-13T09:47:35;100577.25;;;26.70;49.91
28289;BME280;15558;50.874;6.964;2022-09-13T09:50:14;100578.09;;;26.84;48.11
28289;BME280;15558;50.874;6.964;2022-09-13T09:53:05;100585.91;;;26.90;48.13
28289;BME280;15558;50.874;6.964;2022-09-13T09:56:14;100583.03;;;26.97;49.18
28289;BME280;15558;50.874;6.964;2022-09-13T09:58:40;100585.47;;;27.16;47.86
28289;BME280;15558;50.874;6.964;2022-09-13T10:01:19;100575.59;;;27.24;46.86
28289;BME280;15558;50.874;6.964;2022-09-13T10:04:05;100585.88;;;27.32;46.75
28289;BME280;15558;50.874;6.964;2022-09-13T10:06:33;100571.03;;;27.37;48.21
28289;BME280;15558;50.874;6.964;2022-09-13T10:09:04;100578.03;;;27.53;46.52
28289;BME280;15558;50.874;6.964;2022-09-13T10:11:43;100572.13;;;27.81;46.97
28289;BME280;15558;50.874;6.964;2022-09-13T10:14:39;100569.19;;;27.94;47.34
28289;BME280;15558;50.874;6.964;2022-09-13T10:17:19;100565.09;;;28.02;46.95
28289;BME280;15558;50.874;6.964;2022-09-13T10:19:55;100565.44;;;28.11;46.43
28289;BME280;15558;50.874;6.964;2022-09-13T10:22:27;100557.13;;;28.23;44.64
28289;BME280;15558;50.874;6.964;2022-09-13T10:24:54;100551.66;;;28.39;43.88
28289;BME280;15558;50.874;6.964;2022-09-13T10:27:24;100553.66;;;28.49;45.43
28289;BME280;15558;50.874;6.964;2022-09-13T10:29:55;100552.00;;;28.45;42.93
28289;BME280;15558;50.874;6.964;2022-09-13T10:32:25;100550.41;;;28.40;44.37
28289;BME280;15558;50.874;6.964;2022-09-13T10:34:53;100547.97;;;28.32;44.42
28289;BME280;15558;50.874;6.964;2022-09-13T10:37:27;100550.13;;;28.18;43.87
28289;BME280;15558;50.874;6.964;2022-09-13T10:40:07;100542.66;;;28.27;44.88
28289;BME280;15558;50.874;6.964;2022-09-13T10:42:37;100546.28;;;28.41;45.86
28289;BME280;15558;50.874;6.964;2022-09-13T10:45:07;100537.22;;;28.36;45.60
28289;BME280;15558;50.874;6.964;2022-09-13T10:47:45;100532.31;;;28.29;45.90
28289;BME280;15558;50.874;6.964;2022-09-13T10:50:20;100530.72;;;28.25;44.75
28289;BME280;15558;50.874;6.964;2022-09-13T10:52:48;100534.81;;;28.24;46.00
28289;BME280;15558;50.874;6.964;2022-09-13T10:57:48;100530.38;;;28.16;44.26
28289;BME280;15558;50.874;6.964;2022-09-13T11:00:15;100531.59;;;28.19;45.34
28289;BME280;15558;50.874;6.964;2022-09-13T11:03:04;100520.03;;;28.19;45.77
28289;BME280;15558;50.874;6.964;2022-09-13T11:05:42;100520.38;;;28.24;46.01
28289;BME280;15558;50.874;6.964;2022-09-13T11:30:23;100499.16;;;28.98;43.43
28289;BME280;15558;50.874;6.964;2022-09-13T11:35:46;100487.03;;;29.50;42.10
28289;BME280;15558;50.874;6.964;2022-09-13T11:46:51;100486.13;;;30.45;39.75
28289;BME280;15558;50.874;6.964;2022-09-13T11:49:33;100486.09;;;30.71;38.15
28289;BME280;15558;50.874;6.964;2022-09-13T11:52:10;100484.38;;;30.73;39.03
28289;BME280;15558;50.874;6.964;2022-09-13T11:57:49;100487.72;;;30.72;38.95
28289;BME280;15558;50.874;6.964;2022-09-13T12:00:21;100490.63;;;30.72;37.98
28289;BME280;15558;50.874;6.964;2022-09-13T12:03:04;100492.97;;;31.03;38.81
28289;BME280;15558;50.874;6.964;2022-09-13T12:05:57;100494.94;;;31.32;38.72
28289;BME280;15558;50.874;6.964;2022-09-13T12:08:31;100482.69;;;31.21;38.63
28289;BME280;15558;50.874;6.964;2022-09-13T12:11:24;100487.56;;;31.05;37.51
28289;BME280;15558;50.874;6.964;2022-09-13T12:13:55;100473.06;;;30.82;36.87
28289;BME280;15558;50.874;6.964;2022-09-13T12:16:38;100480.34;;;30.68;39.88
28289;BME280;15558;50.874;6.964;2022-09-13T12:21:41;100473.06;;;30.34;39.87
28289;BME280;15558;50.874;6.964;2022-09-13T12:27:06;100467.38;;;30.27;40.01
28289;BME280;15558;50.874;6.964;2022-09-13T12:29:46;100454.47;;;30.31;39.83
28289;BME280;15558;50.874;6.964;2022-09-13T12:32:15;100454.03;;;30.33;39.18
28289;BME280;15558;50.874;6.964;2022-09-13T12:35:01;100451.28;;;30.22;40.76
28289;BME280;15558;50.874;6.964;2022-09-13T12:41:00;100447.69;;;30.41;38.84
28289;BME280;15558;50.874;6.964;2022-09-13T12:46:40;100445.59;;;30.41;39.17
28289;BME280;15558;50.874;6.964;2022-09-13T12:52:29;100451.72;;;30.47;37.39
28289;BME280;15558;50.874;6.964;2022-09-13T12:55:18;100443.66;;;30.58;37.43
28289;BME280;15558;50.874;6.964;2022-09-13T13:03:29;100437.00;;;30.61;39.22
28289;BME280;15558;50.874;6.964;2022-09-13T13:06:09;100434.69;;;30.52;39.58
28289;BME280;15558;50.874;6.964;2022-09-13T13:08:37;100429.25;;;30.54;39.53
28289;BME280;15558;50.874;6.964;2022-09-13T13:11:07;100434.94;;;30.35;38.85
28289;BME280;15558;50.874;6.964;2022-09-13T13:13:39;100430.56;;;30.27;37.99
28289;BME280;15558;50.874;6.964;2022-09-13T13:16:28;100427.16;;;30.32;37.81
28289;BME280;15558;50.874;6.964;2022-09-13T13:18:59;100424.63;;;30.34;37.83
28289;BME280;15558;50.874;6.964;2022-09-13T13:21:32;100431.41;;;30.24;40.18
28289;BME280;15558;50.874;6.964;2022-09-13T13:29:28;100424.63;;;30.08;39.23
28289;BME280;15558;50.874;6.964;2022-09-13T13:34:43;100423.16;;;29.97;39.43
28289;BME280;15558;50.874;6.964;2022-09-13T13:39:43;100420.47;;;29.83;39.30
28289;BME280;15558;50.874;6.964;2022-09-13T13:42:26;100416.47;;;29.73;40.98
28289;BME280;15558;50.874;6.964;2022-09-13T13:49:52;100420.56;;;29.76;40.37
28289;BME280;15558;50.874;6.964;2022-09-13T13:58:02;100410.59;;;29.80;38.47
28289;BME280;15558;50.874;6.964;2022-09-13T14:00:30;100410.03;;;29.89;40.16
28289;BME280;15558;50.874;6.964;2022-09-13T14:05:50;100396.34;;;29.93;40.83
28289;BME280;15558;50.874;6.964;2022-09-13T14:24:43;100383.38;;;29.74;40.60
28289;BME280;15558;50.874;6.964;2022-09-13T14:27:23;100379.81;;;29.64;40.74
28289;BME280;15558;50.874;6.964;2022-09-13T14:29:52;100379.38;;;29.65;38.93
28289;BME280;15558;50.874;6.964;2022-09-13T14:32:21;100379.38;;;29.65;38.30
28289;BME280;15558;50.874;6.964;2022-09-13T14:35:19;100377.28;;;29.66;40.43
28289;BME280;15558;50.874;6.964;2022-09-13T14:37:47;100371.94;;;29.64;40.71
28289;BME280;15558;50.874;6.964;2022-09-13T14:40:22;100373.94;;;29.67;40.95
28289;BME280;15558;50.874;6.964;2022-09-13T14:42:51;100376.84;;;29.67;41.36
28289;BME280;15558;50.874;6.964;2022-09-13T14:45:32;100379.81;;;29.64;40.76
28289;BME280;15558;50.874;6.964;2022-09-13T14:48:13;100376.47;;;29.65;40.14
28289;BME280;15558;50.874;6.964;2022-09-13T14:54:04;100371.69;;;29.52;40.37
28289;BME280;15558;50.874;6.964;2022-09-13T14:56:36;100379.94;;;29.53;42.74
28289;BME280;15558;50.874;6.964;2022-09-13T14:59:39;100375.91;;;29.47;41.80
28289;BME280;15558;50.874;6.964;2022-09-13T15:02:06;100372.63;;;29.45;43.79
28289;BME280;15558;50.874;6.964;2022-09-13T15:04:32;100382.59;;;29.41;44.11
28289;BME280;15558;50.874;6.964;2022-09-13T15:07:31;100380.56;;;29.38;42.57
28289;BME280;15558;50.874;6.964;2022-09-13T15:12:30;100364.91;;;29.35;42.02
28289;BME280;15558;50.874;6.964;2022-09-13T15:23:16;100377.91;;;29.21;41.58
28289;BME280;15558;50.874;6.964;2022-09-13T15:25:52;100377.13;;;29.17;42.17
28289;BME280;15558;50.874;6.964;2022-09-13T15:28:25;100380.03;;;29.17;41.59
28289;BME280;15558;50.874;6.964;2022-09-13T15:30:51;100378.09;;;29.03;41.43
28289;BME280;15558;50.874;6.964;2022-09-13T15:33:29;100368.13;;;29.08;41.87
28289;BME280;15558;50.874;6.964;2022-09-13T15:39:00;100372.00;;;28.94;41.54
28289;BME280;15558;50.874;6.964;2022-09-13T15:41:37;100374.47;;;28.96;42.22
28289;BME280;15558;50.874;6.964;2022-09-13T15:44:07;100370.75;;;28.99;42.15
28289;BME280;15558;50.874;6.964;2022-09-13T15:46:53;100382.47;;;28.85;41.38
28289;BME280;15558;50.874;6.964;2022-09-13T15:49:22;100384.88;;;28.90;41.26
28289;BME280;15558;50.874;6.964;2022-09-13T15:51:54;100392.31;;;28.91;42.27
28289;BME280;15558;50.874;6.964;2022-09-13T15:54:21;100384.09;;;28.86;42.88
28289;BME280;15558;50.874;6.964;2022-09-13T15:56:48;100389.03;;;28.86;42.32
28289;BME280;15558;50.874;6.964;2022-09-13T15:59:19;100382.06;;;28.83;41.66
28289;BME280;15558;50.874;6.964;2022-09-13T16:01:49;100385.81;;;28.80;41.52
28289;BME280;15558;50.874;6.964;2022-09-13T16:04:16;100385.84;;;28.77;41.86
28289;BME280;15558;50.874;6.964;2022-09-13T16:06:43;100377.63;;;28.72;42.82
28289;BME280;15558;50.874;6.964;2022-09-13T16:11:42;100376.03;;;28.67;43.60
28289;BME280;15558;50.874;6.964;2022-09-13T16:14:08;100385.66;;;28.58;44.45
28289;BME280;15558;50.874;6.964;2022-09-13T16:16:34;100383.16;;;28.60;45.26
28289;BME280;15558;50.874;6.964;2022-09-13T16:19:00;100378.63;;;28.59;45.75